Time;durP1;ratioP1;P1;durP2;ratioP2;P2;SDS_P1;SDS_P2;PMS_P1;PMS_P2;Temp;Humidity;BMP_temperature;BMP_pressure;BME280_temperature;BME280_humidity;BME280_pressure;Samples;Min_cycle;Max_cycle;Signal;HPM_P1;HPM_P2
2022/12/03 00:04:16;;;;;;;1999.90;999.90;;;2.50;99.90;;;;;;6719675;88;20224;-78
2022/12/03 00:14:16;;;;;;;1999.90;999.90;;;2.60;99.90;;;;;;6719327;88;20337;-77
2022/12/03 00:24:17;;;;;;;1999.90;999.90;;;2.60;99.90;;;;;;6724120;88;20239;-78
2022/12/03 00:34:18;;;;;;;1999.90;999.90;;;2.60;99.90;;;;;;6724954;88;20218;-78
2022/12/03 00:44:18;;;;;;;1999.90;999.90;;;2.70;99.90;;;;;;6719641;88;20228;-78
2022/12/03 00:54:19;;;;;;;1999.90;999.90;;;2.60;99.90;;;;;;6717274;88;20288;-78
2022/12/03 01:04:19;;;;;;;1999.90;999.90;;;2.60;99.90;;;;;;6717952;88;20201;-78
2022/12/03 01:14:20;;;;;;;1999.90;999.90;;;2.60;99.90;;;;;;6718255;88;20219;-78
2022/12/03 01:24:21;;;;;;;1999.90;999.90;;;2.70;99.90;;;;;;6720602;88;20555;-78
2022/12/03 01:34:21;;;;;;;1999.90;999.90;;;2.60;99.90;;;;;;6729778;88;20217;-77
2022/12/03 01:44:26;;;;;;;1999.90;999.90;;;2.70;99.90;;;;;;6738920;77;20211;-74
2022/12/03 01:54:35;;;;;;;1999.90;999.90;;;2.60;99.90;;;;;;6723294;88;20427;-73
2022/12/03 02:04:36;;;;;;;1999.90;999.90;;;2.70;99.90;;;;;;6726085;88;20209;-73
2022/12/03 02:14:37;;;;;;;1999.90;999.90;;;2.60;99.90;;;;;;6725487;88;20335;-73
2022/12/03 02:25:00;;;;;;;1999.90;999.90;;;2.80;99.90;;;;;;6730291;88;20672;-74
2022/12/03 02:35:01;;;;;;;1999.90;999.90;;;2.70;99.90;;;;;;6716907;88;20591;-75
2022/12/03 02:45:18;;;;;;;1999.90;999.90;;;2.80;99.90;;;;;;6741436;88;20444;-74
2022/12/03 02:55:19;;;;;;;1999.90;999.90;;;2.70;99.90;;;;;;6748438;88;20198;-75
2022/12/03 03:05:22;;;;;;;1999.90;999.90;;;2.60;99.90;;;;;;6731348;88;20205;-74
2022/12/03 03:15:24;;;;;;;1999.90;999.90;;;2.80;99.90;;;;;;6729004;88;20204;-74
2022/12/03 03:25:24;;;;;;;1999.90;999.90;;;2.70;99.90;;;;;;6728501;88;20318;-74
2022/12/03 03:35:25;;;;;;;1999.90;999.90;;;2.70;99.90;;;;;;6718603;88;20947;-74
2022/12/03 03:45:26;;;;;;;1999.90;999.90;;;2.70;99.90;;;;;;6728586;88;20222;-75
2022/12/03 03:55:27;;;;;;;1999.90;999.90;;;2.70;99.90;;;;;;6725398;88;20746;-74
2022/12/03 04:05:28;;;;;;;1999.90;999.90;;;2.70;99.90;;;;;;6726258;88;20964;-74
2022/12/03 04:15:29;;;;;;;1999.90;999.90;;;2.60;99.90;;;;;;6721855;88;20214;-75
2022/12/03 04:35:48;;;;;;;1999.90;999.90;;;2.70;99.90;;;;;;6722697;88;20176;-74
2022/12/03 04:45:49;;;;;;;1999.90;999.90;;;2.70;99.90;;;;;;6719489;88;20238;-74
2022/12/03 04:55:49;;;;;;;1999.90;999.90;;;2.70;99.90;;;;;;6727500;88;20241;-74
2022/12/03 05:05:50;;;;;;;1999.90;999.90;;;2.60;99.90;;;;;;6722638;88;20252;-74
2022/12/03 05:15:50;;;;;;;1999.90;999.90;;;2.60;99.90;;;;;;6724873;88;20880;-74
2022/12/03 05:25:51;;;;;;;1999.90;999.90;;;2.60;99.90;;;;;;6727791;88;20265;-75
2022/12/03 05:35:51;;;;;;;1999.90;999.90;;;2.60;99.90;;;;;;6726865;88;20224;-74
2022/12/03 05:45:52;;;;;;;1999.90;999.90;;;2.60;99.90;;;;;;6724890;88;20221;-75
2022/12/03 05:55:52;;;;;;;1999.90;999.90;;;2.50;99.90;;;;;;6738281;88;20740;-74
2022/12/03 06:05:53;;;;;;;1999.90;999.90;;;2.50;99.90;;;;;;6740000;88;20734;-74
2022/12/03 06:15:53;;;;;;;1999.90;999.90;;;2.50;99.90;;;;;;6729129;88;20583;-74
2022/12/03 06:25:54;;;;;;;1999.90;999.90;;;2.30;99.90;;;;;;6726747;88;20634;-75
2022/12/03 06:35:54;;;;;;;1999.90;999.90;;;2.30;99.90;;;;;;6726672;88;20212;-74
2022/12/03 06:45:55;;;;;;;1999.90;999.90;;;2.40;99.90;;;;;;6726645;88;20751;-74
2022/12/03 06:55:56;;;;;;;1999.90;999.90;;;2.30;99.90;;;;;;6723942;88;20769;-74
2022/12/03 07:05:57;;;;;;;1999.90;999.90;;;2.30;99.90;;;;;;6719158;88;20225;-75
2022/12/03 07:15:57;;;;;;;1999.90;999.90;;;2.30;99.90;;;;;;6723885;88;20234;-74
2022/12/03 07:25:58;;;;;;;1999.90;999.90;;;2.20;99.90;;;;;;6724378;88;20706;-75
2022/12/03 07:35:58;;;;;;;1999.90;999.90;;;2.20;99.90;;;;;;6726748;88;20280;-75
2022/12/03 07:45:59;;;;;;;1999.90;999.90;;;2.20;99.90;;;;;;6724663;88;20242;-74
2022/12/03 07:55:59;;;;;;;1999.90;999.90;;;2.20;99.90;;;;;;6724567;88;20262;-74
2022/12/03 08:06:00;;;;;;;1999.90;999.90;;;2.40;99.90;;;;;;6725534;88;20729;-75
2022/12/03 08:16:13;;;;;;;1999.90;999.90;;;2.50;99.90;;;;;;6724241;88;20629;-74
2022/12/03 08:26:23;;;;;;;1999.90;999.90;;;2.50;99.90;;;;;;6723431;88;20218;-75
2022/12/03 08:36:28;;;;;;;1999.90;999.90;;;2.50;99.90;;;;;;6722001;88;20244;-75
2022/12/03 08:46:29;;;;;;;1999.90;999.90;;;2.50;99.90;;;;;;6720736;88;20270;-73
2022/12/03 08:56:34;;;;;;;1999.90;999.90;;;2.60;99.90;;;;;;6722831;88;20853;-73
2022/12/03 09:06:35;;;;;;;1999.90;999.90;;;2.60;99.90;;;;;;6722674;88;20230;-73
2022/12/03 09:16:35;;;;;;;1999.90;999.90;;;2.50;99.90;;;;;;6723526;88;20291;-72
2022/12/03 09:26:36;;;;;;;1999.90;999.90;;;2.60;99.90;;;;;;6722510;88;20170;-75
2022/12/03 09:36:36;;;;;;;1999.90;999.90;;;2.80;99.90;;;;;;6719740;88;20231;-74
2022/12/03 09:46:39;;;;;;;1999.90;999.90;;;2.70;99.90;;;;;;6721526;88;20222;-74
2022/12/03 09:56:39;;;;;;;1999.90;999.90;;;2.80;99.90;;;;;;6722709;88;20426;-74
2022/12/03 10:06:40;;;;;;;1999.90;999.90;;;2.80;99.90;;;;;;6725750;88;20656;-74
2022/12/03 10:16:41;;;;;;;1999.90;999.90;;;2.80;99.90;;;;;;6728310;88;21160;-74
2022/12/03 10:26:43;;;;;;;1999.90;999.90;;;2.90;99.90;;;;;;6723446;88;20626;-74
2022/12/03 10:36:44;;;;;;;1999.90;999.90;;;2.80;99.90;;;;;;6721556;88;20448;-74
2022/12/03 10:47:02;;;;;;;1999.90;999.90;;;2.90;99.90;;;;;;6747850;88;20819;-75
2022/12/03 10:57:03;;;;;;;1999.90;999.90;;;3.00;99.90;;;;;;6724019;88;20189;-74
2022/12/03 11:07:14;;;;;;;1999.90;999.90;;;3.10;99.90;;;;;;6721356;88;20292;-75
2022/12/03 11:17:37;;;;;;;1999.90;999.90;;;3.10;99.90;;;;;;6718924;88;20726;-73
2022/12/03 11:27:43;;;;;;;1999.90;999.90;;;3.10;99.90;;;;;;6723298;88;20185;-73
2022/12/03 11:37:44;;;;;;;1999.90;999.90;;;3.00;99.90;;;;;;6723090;88;20681;-74
2022/12/03 11:48:07;;;;;;;1999.90;999.90;;;3.10;99.90;;;;;;6723044;88;20193;-75
2022/12/03 11:58:15;;;;;;;1999.90;999.90;;;3.00;99.90;;;;;;6718433;88;20722;-74
2022/12/03 12:08:18;;;;;;;1999.90;999.90;;;3.30;99.90;;;;;;6719415;88;20370;-74
2022/12/03 12:18:42;;;;;;;1999.90;999.90;;;3.20;99.90;;;;;;6719379;88;20340;-74
2022/12/03 12:28:43;;;;;;;1999.90;999.90;;;3.30;99.90;;;;;;6716142;88;20267;-74
2022/12/03 12:38:43;;;;;;;1999.90;999.90;;;3.20;99.90;;;;;;6719287;88;20649;-74
2022/12/03 12:48:44;;;;;;;1999.90;999.90;;;3.20;99.90;;;;;;6719717;88;20686;-73
2022/12/03 12:58:45;;;;;;;1999.90;999.90;;;3.20;99.90;;;;;;6719597;88;20183;-73
2022/12/03 13:08:47;;;;;;;1999.90;999.90;;;3.20;99.90;;;;;;6720991;88;20233;-74
2022/12/03 13:18:53;;;;;;;1999.90;999.90;;;3.20;99.90;;;;;;6720615;88;20190;-74
2022/12/03 13:28:56;;;;;;;1999.90;999.90;;;3.30;99.90;;;;;;6718677;88;20173;-74
2022/12/03 13:38:57;;;;;;;1999.90;999.90;;;3.40;99.90;;;;;;6721148;88;20593;-74
2022/12/03 13:48:57;;;;;;;1999.90;999.90;;;3.50;99.90;;;;;;6721791;88;20312;-74
2022/12/03 13:58:59;;;;;;;1999.90;999.90;;;3.40;99.90;;;;;;6721024;88;20194;-74
2022/12/03 14:09:00;;;;;;;1999.90;999.90;;;3.40;99.90;;;;;;6722386;88;20270;-74
2022/12/03 14:19:00;;;;;;;1999.90;999.90;;;3.50;99.90;;;;;;6724488;88;20693;-74
2022/12/03 14:29:01;;;;;;;1999.90;999.90;;;3.40;99.90;;;;;;6725676;88;20798;-73
2022/12/03 14:39:02;;;;;;;1999.90;999.90;;;3.50;99.90;;;;;;6729609;88;21045;-73
2022/12/03 14:49:02;;;;;;;1999.90;999.90;;;3.50;99.90;;;;;;6730880;88;20245;-73
2022/12/03 14:59:03;;;;;;;1999.90;999.90;;;3.40;99.90;;;;;;6732676;88;20202;-74
2022/12/03 15:09:04;;;;;;;1999.90;999.90;;;3.40;99.90;;;;;;6726807;88;20255;-74
2022/12/03 15:19:04;;;;;;;1999.90;999.90;;;3.30;99.90;;;;;;6724025;88;20218;-74
2022/12/03 15:29:05;;;;;;;1999.90;999.90;;;3.20;99.90;;;;;;6722078;88;20272;-74
2022/12/03 15:39:06;;;;;;;1999.90;999.90;;;3.10;99.90;;;;;;6725695;88;20182;-73
2022/12/03 15:49:06;;;;;;;1999.90;999.90;;;3.20;99.90;;;;;;6723150;88;20268;-73
2022/12/03 15:59:07;;;;;;;1999.90;999.90;;;3.10;99.90;;;;;;6720709;88;20188;-74
2022/12/03 16:09:07;;;;;;;1999.90;999.90;;;3.20;99.90;;;;;;6723521;88;20311;-74
2022/12/03 16:19:08;;;;;;;1999.90;999.90;;;3.00;99.90;;;;;;6722153;88;20285;-74
2022/12/03 16:29:08;;;;;;;1999.90;999.90;;;3.10;99.90;;;;;;6721143;88;20193;-74
2022/12/03 16:39:10;;;;;;;1999.90;999.90;;;3.10;99.90;;;;;;6719285;88;20273;-74
2022/12/03 16:49:10;;;;;;;1999.90;999.90;;;3.10;99.90;;;;;;6720168;88;20216;-74
2022/12/03 16:59:11;;;;;;;1999.90;999.90;;;3.10;99.90;;;;;;6720238;88;20620;-74
2022/12/03 17:09:11;;;;;;;1999.90;999.90;;;3.00;99.90;;;;;;6720783;88;20557;-74
2022/12/03 17:19:12;;;;;;;1999.90;999.90;;;3.10;99.90;;;;;;6718374;88;20541;-74
2022/12/03 17:29:13;;;;;;;1999.90;999.90;;;3.10;99.90;;;;;;6722427;88;21187;-73
2022/12/03 17:39:14;;;;;;;1999.90;999.90;;;3.00;99.90;;;;;;6722772;88;20208;-74
2022/12/03 17:49:14;;;;;;;1999.90;999.90;;;3.00;99.90;;;;;;6719064;88;20288;-73
2022/12/03 17:59:15;;;;;;;1999.90;999.90;;;2.90;99.90;;;;;;6719437;88;20641;-73
2022/12/03 18:09:16;;;;;;;1999.90;999.90;;;2.90;99.90;;;;;;6719555;88;21001;-74
2022/12/03 18:19:17;;;;;;;1999.90;999.90;;;2.90;99.90;;;;;;6720227;88;20251;-74
2022/12/03 18:29:18;;;;;;;1999.90;999.90;;;3.10;99.90;;;;;;6723289;88;20307;-73
2022/12/03 18:39:33;;;;;;;1999.90;999.90;;;2.90;99.90;;;;;;6722704;88;20288;-74
2022/12/03 18:49:33;;;;;;;1999.90;999.90;;;2.90;99.90;;;;;;6720911;88;20193;-74
2022/12/03 18:59:34;;;;;;;1999.90;999.90;;;2.90;99.90;;;;;;6721293;88;20312;-73
2022/12/03 19:09:34;;;;;;;1999.90;999.90;;;2.90;99.90;;;;;;6723003;88;20657;-74
2022/12/03 19:19:36;;;;;;;1999.90;999.90;;;2.80;99.90;;;;;;6729689;88;20687;-74
2022/12/03 19:29:36;;;;;;;1999.90;999.90;;;2.90;99.90;;;;;;6732354;88;20194;-74
2022/12/03 19:39:37;;;;;;;1999.90;999.90;;;2.80;99.90;;;;;;6724810;88;20351;-75
2022/12/03 19:49:38;;;;;;;1999.90;999.90;;;2.80;99.90;;;;;;6717234;88;20648;-72
2022/12/03 19:59:38;;;;;;;1999.90;999.90;;;2.80;99.90;;;;;;6721664;88;20216;-72
2022/12/03 20:09:39;;;;;;;1999.90;999.90;;;2.80;99.90;;;;;;6722661;88;20178;-73
2022/12/03 20:19:39;;;;;;;1999.90;999.90;;;3.00;99.90;;;;;;6720059;88;20204;-73
2022/12/03 20:29:40;;;;;;;1999.90;999.90;;;3.00;99.90;;;;;;6720214;88;20218;-74
2022/12/03 20:39:40;;;;;;;1999.90;999.90;;;3.00;99.90;;;;;;6721609;88;20205;-73
2022/12/03 20:49:41;;;;;;;1999.90;999.90;;;2.90;99.90;;;;;;6720434;88;20371;-74
2022/12/03 20:59:41;;;;;;;1999.90;999.90;;;2.80;99.90;;;;;;6720730;88;20316;-73
2022/12/03 21:09:42;;;;;;;1999.90;999.90;;;2.90;99.90;;;;;;6720719;88;20214;-73
2022/12/03 21:19:42;;;;;;;1999.90;999.90;;;2.70;99.90;;;;;;6720018;88;20181;-73
2022/12/03 21:29:43;;;;;;;1999.90;999.90;;;2.70;99.90;;;;;;6717582;88;20351;-73
2022/12/03 21:39:43;;;;;;;1999.90;999.90;;;2.70;99.90;;;;;;6717897;88;20225;-72
2022/12/03 21:49:44;;;;;;;1999.90;999.90;;;2.70;99.90;;;;;;6719702;88;20215;-73
2022/12/03 21:59:44;;;;;;;1999.90;999.90;;;2.60;99.90;;;;;;6722904;88;20186;-73
2022/12/03 22:09:45;;;;;;;1999.90;999.90;;;2.70;99.90;;;;;;6724183;88;20195;-73
2022/12/03 22:19:45;;;;;;;1999.90;999.90;;;2.80;99.90;;;;;;6722688;88;20246;-73
2022/12/03 22:29:46;;;;;;;1999.90;999.90;;;2.90;99.90;;;;;;6720455;88;20252;-73
2022/12/03 22:39:46;;;;;;;1999.90;999.90;;;2.90;99.90;;;;;;6722645;88;20568;-73
2022/12/03 22:49:47;;;;;;;1999.90;999.90;;;2.70;99.90;;;;;;6720460;88;20325;-72
2022/12/03 22:59:47;;;;;;;1999.90;999.90;;;2.80;99.90;;;;;;6722026;88;20190;-73
2022/12/03 23:09:48;;;;;;;1999.90;999.90;;;2.70;99.90;;;;;;6724201;88;20204;-72
2022/12/03 23:19:49;;;;;;;1999.90;999.90;;;2.80;99.90;;;;;;6721471;88;20189;-72
2022/12/03 23:29:49;;;;;;;1999.90;999.90;;;2.80;99.90;;;;;;6729677;88;20507;-73
2022/12/03 23:39:50;;;;;;;1999.90;999.90;;;2.80;99.90;;;;;;6720237;88;20667;-72
2022/12/03 23:49:50;;;;;;;1999.90;999.90;;;2.80;99.90;;;;;;6734238;88;20184;-74
2022/12/03 23:59:51;;;;;;;1999.90;999.90;;;2.80;99.90;;;;;;6730952;88;20184;-73
